Canton Center, Connecticut
Current Conditions -  °F | °C
As of 9:51 PM on Friday 19 Dec 2014 (Local Time) from KBDL Reporting Station
Few Clouds Few Clouds  
Wind Chill: 22°   Ceiling: Unl
Heat Index: 29°   Visibility: 10mi
Dew Point: 20°   Wind: 7mph
Humidity: 69%   Direction: 330°NNW
Pressure: 30.12"   Gusts: NA
Location:  41.87°N, 72.91°W
Report Text: KBDL 200251Z 33006KT 10SM FEW029 FEW035 M02/M07 A3012 RMK AO2 SLP200 T10171067 50010
Loading
Personal Weather Stations






























Interactive Weather Map New forecast layout! Learn more

10-Day Weather Forecast

Advertisements
Track Severe Weather on mobile